Have a Safe July 4th! 

Flight Track Log - Related Links

Times and Time Zones

All times are in EDT time to prevent confusion due to time zone crossing. See the N600TR flight status page for this flight to view local times or setup timezone preferences in your user account.

Time Position Orientation Groundspeed Altitude Reporting Facility
EDT Latitude Longitude Course Direction KTS MPH feet Rate Location/Type
Mon 12:24:42 PM 33.6500 -84.4833 54° Northeast 187 215 2,400  Level Atlanta TRACON
Mon 12:25:42 PM 33.6833 -84.5500 301° West 266 306 4,300 2,300 Climbing Atlanta TRACON
Mon 12:26:42 PM 33.7333 -84.6000 320° Northwest 277 319 7,000 2,350 Climbing Atlanta TRACON
Mon 12:27:00 PM 33.8103 -83.9350 67° East  Level FlightAware Approximate
Mon 12:27:42 PM 33.8000 -84.5667 23° Northeast 296 341 9,000  Level Atlanta TRACON
Mon 12:28:00 PM 33.8621 -83.8091 59° Northeast  Level FlightAware Approximate
Mon 12:29:00 PM 33.9274 -83.7005 54° Northeast  Level FlightAware Approximate
Mon 12:29:52 PM 33.8314 -84.3414 80° East 317 365 12,100  Level Atlanta Center
Mon 12:30:52 PM 33.8214 -84.2139 95° East 358 412 12,800 1,500 Climbing Atlanta Center
Mon 12:31:52 PM 33.7922 -84.0814 105° East 395 455 15,100 1,900 Climbing Atlanta Center
Mon 12:33:52 PM 33.8192 -83.8289 83° East 385 443 18,500 1,667 Climbing Atlanta Center
Mon 12:34:52 PM 33.8878 -83.7108 55° Northeast 395 455 20,100 1,350 Climbing Atlanta Center
Mon 12:35:52 PM 33.9522 -83.6106 52° Northeast 416 479 21,200 1,150 Climbing Atlanta Center
Mon 12:36:52 PM 34.0267 -83.4925 53° Northeast 434 499 22,400 1,350 Climbing Atlanta Center
Mon 12:37:52 PM 34.0992 -83.3789 52° Northeast 435 501 23,900 1,150 Climbing Atlanta Center
Mon 12:38:52 PM 34.1822 -83.2653 49° Northeast 441 507 24,700 850 Climbing Atlanta Center
Mon 12:39:52 PM 34.2647 -83.1514 49° Northeast 441 507 25,600 850 Climbing Atlanta Center
Mon 12:40:52 PM 34.3494 -83.0375 48° Northeast 441 507 26,400 1,700 Climbing Atlanta Center
Mon 12:41:52 PM 34.4467 -82.9153 46° Northeast 453 521 29,000 900 Climbing Atlanta Center
Mon 12:42:52 PM 34.5206 -82.8008 52° Northeast 458 527 28,200 -100 Descending Atlanta Center
Mon 12:43:52 PM 34.6108 -82.6658 51° Northeast 468 539 28,800 400 Climbing Atlanta Center
Mon 12:44:52 PM 34.6783 -82.5283 59° Northeast 468 539 29,000 100 Climbing Atlanta Center
Mon 12:45:52 PM 34.7494 -82.3881 58° Northeast 474 545 29,000  Level Atlanta Center
Mon 12:46:52 PM 34.8183 -82.2500 59° Northeast 480 552 29,000  Level Atlanta Center
Mon 12:47:52 PM 34.8958 -82.1192 54° Northeast 480 552 29,000  Level Atlanta Center
Mon 12:48:52 PM 34.9797 -82.0133 46° Northeast 467 537 29,000 -500 Level Atlanta Center
Mon 12:49:52 PM 35.0947 -81.9064 37° Northeast 467 537 28,000 -1,700 Descending Atlanta Center
Mon 12:50:52 PM 35.2100 -81.8272 29° Northeast 467 537 25,600 -2,450 Descending Atlanta Center
Mon 12:51:52 PM 35.3189 -81.7353 35° Northeast 472 543 23,100 -2,250 Descending Atlanta Center
Mon 12:52:52 PM 35.4217 -81.6481 35° Northeast 467 537 21,100 -1,600 Descending Atlanta Center
Mon 12:53:52 PM 35.5244 -81.5711 31° Northeast 441 507 19,900 -950 Descending Atlanta Center
Mon 12:54:52 PM 35.6272 -81.5017 29° Northeast 425 489 19,200 -450 Descending Atlanta Center
Mon 12:55:52 PM 35.7136 -81.4325 33° Northeast 415 478 19,000 -200 Descending Atlanta Center
Mon 12:56:52 PM 35.8119 -81.3550 33° Northeast 415 478 18,800 -850 Descending Atlanta Center
Mon 12:57:52 PM 35.9125 -81.2750 33° Northeast 426 490 17,300 -1,500 Descending Atlanta Center
Mon 12:58:52 PM 36.0150 -81.1944 32° Northeast 431 496 15,800 -1,550 Descending Atlanta Center
Mon 12:59:52 PM 36.1172 -81.1136 33° Northeast 411 473 14,200 -1,600 Descending Atlanta Center
Mon 01:01:52 PM 36.1783 -80.8825 72° East 358 412 11,000 -1,067 Descending Atlanta Center
Mon 01:02:52 PM 36.1603 -80.7519 100° East 371 427 11,000  Level Atlanta Center
Mon 01:03:52 PM 36.1442 -80.6242 99° East 376 433 11,000  Level Atlanta Center
Mon 01:04:52 PM 36.1261 -80.4964 100° East 376 433 11,000  Level Atlanta Center
Mon 01:05:52 PM 36.1142 -80.3761 97° East 369 425 11,000 -50 Level Atlanta Center
Mon 01:06:52 PM 36.1503 -80.2639 68° East 339 390 10,900 -650 Descending Atlanta Center
Mon 01:07:52 PM 36.2083 -80.1839 48° Northeast 316 364 9,700 -1,450 Descending Atlanta Center
Mon 01:08:52 PM 36.2497 -80.1072 56° Northeast 305 351 8,000 -1,700 Descending Atlanta Center
Mon 01:09:52 PM 36.2528 -80.0042 88° East 282 325 6,300 -1,800 Descending Atlanta Center
Mon 01:10:52 PM 36.2267 -79.9128 109° East 271 312 4,400 -1,750 Descending Atlanta Center
Mon 01:11:52 PM 36.1725 -79.8564 140° Southeast 227 261 2,800 -1,600 Descending Atlanta Center

Login

Don't have an account? Register now (free) for customized features, flight alerts, and more!